createdAt,value
2018-09-01T00:00:30.760Z,14.30
2018-09-01T00:01:35.209Z,14.30
2018-09-01T00:02:38.966Z,14.20
2018-09-01T00:03:42.549Z,14.30
2018-09-01T00:04:46.152Z,14.30
2018-09-01T00:05:49.784Z,14.20
2018-09-01T00:06:53.523Z,14.10
2018-09-01T00:07:57.184Z,14.10
2018-09-01T00:09:01.014Z,14.10
2018-09-01T00:10:04.761Z,14.00
2018-09-01T00:11:08.352Z,14.00
2018-09-01T00:12:12.057Z,14.00
2018-09-01T00:13:15.757Z,14.00
2018-09-01T00:14:19.424Z,13.90
2018-09-01T00:15:23.254Z,13.90
2018-09-01T00:16:27.041Z,13.90
2018-09-01T00:17:32.039Z,13.80
2018-09-01T00:18:35.825Z,13.80
2018-09-01T00:19:39.493Z,13.80
2018-09-01T00:20:43.049Z,13.70
2018-09-01T00:21:46.534Z,13.70
2018-09-01T00:22:50.278Z,13.60
2018-09-01T00:23:53.882Z,13.60
2018-09-01T00:24:57.557Z,13.50
2018-09-01T00:26:01.027Z,13.50
2018-09-01T00:27:04.535Z,13.60
2018-09-01T00:28:08.044Z,13.50
2018-09-01T00:29:11.703Z,13.40
2018-09-01T00:30:15.139Z,13.30
2018-09-01T00:31:18.644Z,13.20
2018-09-01T00:32:22.269Z,13.10
2018-09-01T00:33:25.769Z,13.10
2018-09-01T00:34:29.230Z,13.00
2018-09-01T00:35:32.757Z,12.90
2018-09-01T00:36:36.246Z,12.90
2018-09-01T00:37:44.880Z,12.90
2018-09-01T00:39:07.350Z,12.90
2018-09-01T00:40:10.932Z,12.80
2018-09-01T00:41:14.423Z,12.80
2018-09-01T00:42:17.887Z,12.70
2018-09-01T00:43:21.430Z,12.70
2018-09-01T00:44:24.898Z,12.60
2018-09-01T00:45:28.993Z,12.70
2018-09-01T00:46:33.307Z,12.60
2018-09-01T00:47:36.878Z,12.60
2018-09-01T00:48:40.313Z,12.50
2018-09-01T00:49:43.953Z,12.50
2018-09-01T00:50:47.429Z,12.50
2018-09-01T00:51:50.917Z,12.40
2018-09-01T00:52:54.415Z,12.30
2018-09-01T00:53:57.880Z,12.30
2018-09-01T00:55:01.343Z,12.20
2018-09-01T00:56:04.926Z,12.20
2018-09-01T00:57:08.440Z,12.10
2018-09-01T00:58:12.038Z,12.10
2018-09-01T00:59:15.504Z,12.10
2018-09-01T01:00:19.034Z,12.10
2018-09-01T01:01:22.612Z,12.10
2018-09-01T01:02:26.134Z,12.00
2018-09-01T01:03:29.647Z,12.00
2018-09-01T01:04:33.329Z,11.90
2018-09-01T01:05:36.804Z,11.90
2018-09-01T01:06:40.337Z,11.80
2018-09-01T01:07:43.934Z,11.80
2018-09-01T01:08:47.384Z,11.70
2018-09-01T01:09:50.968Z,11.70
2018-09-01T01:10:54.592Z,11.70
2018-09-01T01:11:58.112Z,11.60
2018-09-01T01:13:01.666Z,11.50
2018-09-01T01:14:05.147Z,11.50
2018-09-01T01:15:09.364Z,11.50
2018-09-01T01:16:12.917Z,11.60
2018-09-01T01:17:16.440Z,11.60
2018-09-01T01:18:19.924Z,11.60
2018-09-01T01:19:23.517Z,11.60
2018-09-01T01:20:27.002Z,11.50
2018-09-01T01:21:30.551Z,11.50
2018-09-01T01:22:34.085Z,11.50
2018-09-01T01:23:37.575Z,11.40
2018-09-01T01:24:41.070Z,11.30
2018-09-01T01:25:44.556Z,11.30
2018-09-01T01:26:52.358Z,11.30
2018-09-01T01:27:55.939Z,11.20
2018-09-01T01:28:59.452Z,11.10
2018-09-01T01:30:03.336Z,11.00
2018-09-01T01:31:07.169Z,11.00
2018-09-01T01:32:10.652Z,10.90
2018-09-01T01:33:14.773Z,10.80
2018-09-01T01:34:18.250Z,10.80
2018-09-01T01:37:18.303Z,10.60
2018-09-01T01:39:58.337Z,10.40
2018-09-01T01:41:13.590Z,10.40
2018-09-01T01:42:29.179Z,10.40
2018-09-01T01:43:39.180Z,10.40
2018-09-01T01:44:47.216Z,10.40
2018-09-01T01:45:52.507Z,10.30
2018-09-01T01:47:03.635Z,10.40
2018-09-01T01:48:13.060Z,10.40
2018-09-01T01:49:26.186Z,10.30
2018-09-01T01:50:37.152Z,10.40
2018-09-01T01:51:43.812Z,10.40
2018-09-01T01:52:49.895Z,10.40
2018-09-01T01:53:55.441Z,10.40
2018-09-01T01:54:59.258Z,10.40
2018-09-01T01:56:02.821Z,10.40
2018-09-01T01:57:06.391Z,10.50
2018-09-01T01:58:10.253Z,10.50
2018-09-01T01:59:13.839Z,10.40
2018-09-01T02:00:17.467Z,10.30
2018-09-01T02:01:21.059Z,10.20
2018-09-01T02:02:24.715Z,10.10
2018-09-01T02:03:28.536Z,10.00
2018-09-01T02:04:32.902Z,10.00
2018-09-01T02:05:36.682Z,9.90
2018-09-01T02:06:40.299Z,9.90
2018-09-01T02:07:43.907Z,9.90
2018-09-01T02:08:47.520Z,9.90
2018-09-01T02:09:51.095Z,9.80
2018-09-01T02:10:55.157Z,9.80
2018-09-01T02:11:58.747Z,9.80
2018-09-01T02:13:02.327Z,9.80
2018-09-01T02:14:06.248Z,9.70
2018-09-01T02:15:10.026Z,9.70
2018-09-01T02:16:13.640Z,9.60
2018-09-01T02:17:17.235Z,9.70
2018-09-01T02:18:20.961Z,9.70
2018-09-01T02:19:24.518Z,9.70
2018-09-01T02:20:28.092Z,9.80
2018-09-01T02:21:31.860Z,9.80
2018-09-01T02:22:35.474Z,9.80
2018-09-01T02:23:39.043Z,9.80
2018-09-01T02:24:42.655Z,9.70
2018-09-01T02:25:46.337Z,9.80
2018-09-01T02:26:49.933Z,9.80
2018-09-01T02:27:53.670Z,9.80
2018-09-01T02:28:57.639Z,9.80
2018-09-01T02:30:01.248Z,9.90
2018-09-01T02:31:04.919Z,9.90
2018-09-01T02:32:08.554Z,9.90
2018-09-01T02:33:12.375Z,9.90
2018-09-01T02:34:15.940Z,9.90
2018-09-01T02:35:19.662Z,9.90
2018-09-01T02:36:23.535Z,9.80
2018-09-01T02:37:27.386Z,9.80
2018-09-01T02:38:31.182Z,9.90
2018-09-01T02:39:34.823Z,9.90
2018-09-01T02:40:38.411Z,9.90
2018-09-01T02:41:42.004Z,9.90
2018-09-01T02:42:45.613Z,9.90
2018-09-01T02:43:49.217Z,9.90
2018-09-01T02:44:52.835Z,9.80
2018-09-01T02:45:56.413Z,9.80
2018-09-01T02:46:59.986Z,9.70
2018-09-01T02:48:03.608Z,9.70
2018-09-01T02:49:07.199Z,9.70
2018-09-01T02:50:10.903Z,9.70
2018-09-01T02:51:16.190Z,9.70
2018-09-01T02:52:19.850Z,9.70
2018-09-01T02:53:23.414Z,9.70
2018-09-01T02:54:27.183Z,9.70
2018-09-01T02:55:30.765Z,9.70
2018-09-01T02:56:34.506Z,9.70
2018-09-01T02:57:38.119Z,9.80
2018-09-01T02:58:42.316Z,9.80
2018-09-01T02:59:45.978Z,9.80
2018-09-01T03:00:54.812Z,9.80
2018-09-01T03:01:58.373Z,9.80
2018-09-01T03:03:02.583Z,9.70
2018-09-01T03:04:07.489Z,9.70
2018-09-01T03:05:11.440Z,9.70
2018-09-01T03:06:14.997Z,9.70
2018-09-01T03:07:18.694Z,9.70
2018-09-01T03:08:22.304Z,9.70
2018-09-01T03:09:26.118Z,9.70
2018-09-01T03:10:29.747Z,9.70
2018-09-01T03:11:33.405Z,9.60
2018-09-01T03:12:37.121Z,9.50
2018-09-01T03:13:40.809Z,9.40
2018-09-01T03:14:44.729Z,9.50
2018-09-01T03:15:48.330Z,9.40
2018-09-01T03:16:52.716Z,9.30
2018-09-01T03:17:56.391Z,9.20
2018-09-01T03:19:00.110Z,9.10
2018-09-01T03:20:03.801Z,9.00
2018-09-01T03:21:07.403Z,9.00
2018-09-01T03:22:11.007Z,8.90
2018-09-01T03:23:14.740Z,8.90
2018-09-01T03:24:18.374Z,8.80
2018-09-01T03:25:21.953Z,8.80
2018-09-01T03:26:25.681Z,8.70
2018-09-01T03:27:29.266Z,8.70
2018-09-01T03:28:33.183Z,8.70
2018-09-01T03:29:36.917Z,8.60
2018-09-01T03:30:40.550Z,8.60
2018-09-01T03:31:44.226Z,8.60
2018-09-01T03:32:47.932Z,8.70
2018-09-01T03:33:51.736Z,8.70
2018-09-01T03:34:55.314Z,8.80
2018-09-01T03:35:58.934Z,8.80
2018-09-01T03:37:02.578Z,8.80
2018-09-01T03:38:06.186Z,8.70
2018-09-01T03:39:09.805Z,8.70
2018-09-01T03:40:13.388Z,8.60
2018-09-01T03:41:16.936Z,8.60
2018-09-01T03:42:21.056Z,8.60
2018-09-01T03:43:25.353Z,8.60
2018-09-01T03:44:28.943Z,8.60
2018-09-01T03:45:32.513Z,8.50
2018-09-01T03:46:36.112Z,8.50
2018-09-01T03:47:39.964Z,8.50
2018-09-01T03:48:43.571Z,8.50
2018-09-01T03:49:47.603Z,8.40
2018-09-01T03:50:51.424Z,8.40
2018-09-01T03:51:54.975Z,8.40
2018-09-01T03:52:58.643Z,8.30
2018-09-01T03:54:02.426Z,8.30
2018-09-01T03:55:06.326Z,8.30
2018-09-01T03:56:10.976Z,8.30
2018-09-01T03:57:15.308Z,8.30
2018-09-01T03:58:18.944Z,8.30
2018-09-01T03:59:22.725Z,8.30
2018-09-01T04:00:28.607Z,8.20
2018-09-01T04:01:32.165Z,8.20
2018-09-01T04:02:36.298Z,8.20
2018-09-01T04:03:39.976Z,8.30
2018-09-01T04:04:43.606Z,8.30
2018-09-01T04:05:47.320Z,8.20
2018-09-01T04:06:50.990Z,8.20
2018-09-01T04:07:54.657Z,8.20
2018-09-01T04:08:58.382Z,8.10
2018-09-01T04:10:02.202Z,8.10
2018-09-01T04:11:05.822Z,8.10
2018-09-01T04:12:09.560Z,8.10
2018-09-01T04:13:13.386Z,8.10
2018-09-01T04:14:16.977Z,8.10
2018-09-01T04:15:20.565Z,8.00
2018-09-01T04:16:24.149Z,8.00
2018-09-01T04:17:27.825Z,8.00
2018-09-01T04:18:31.598Z,8.00
2018-09-01T04:19:52.980Z,8.00
2018-09-01T04:22:35.131Z,8.00
2018-09-01T04:24:03.212Z,8.00
2018-09-01T04:26:47.074Z,8.20
2018-09-01T04:27:52.335Z,8.10
2018-09-01T04:28:55.960Z,8.10
2018-09-01T04:29:59.613Z,8.10
2018-09-01T04:31:03.195Z,8.10
2018-09-01T04:32:15.390Z,8.10
2018-09-01T04:33:35.969Z,8.10
2018-09-01T04:34:42.034Z,8.00
2018-09-01T04:35:45.761Z,8.00
2018-09-01T04:36:49.266Z,8.00
2018-09-01T04:37:53.135Z,7.90
2018-09-01T04:38:56.946Z,7.90
2018-09-01T04:40:01.053Z,7.90
2018-09-01T04:41:05.073Z,7.90
2018-09-01T04:42:08.588Z,8.00
2018-09-01T04:43:12.650Z,7.90
2018-09-01T04:44:16.098Z,7.90
2018-09-01T04:45:19.627Z,7.90
2018-09-01T04:46:23.093Z,8.00
2018-09-01T04:47:26.597Z,8.00
2018-09-01T04:48:30.141Z,8.00
2018-09-01T04:49:33.707Z,8.00
2018-09-01T04:50:37.276Z,8.00
2018-09-01T04:51:40.799Z,8.00
2018-09-01T04:52:44.521Z,8.00
2018-09-01T04:53:48.058Z,8.10
2018-09-01T04:54:51.610Z,8.10
2018-09-01T04:55:55.163Z,8.10
2018-09-01T04:56:58.674Z,8.00
2018-09-01T04:58:02.171Z,8.10
2018-09-01T04:59:05.731Z,8.10
2018-09-01T05:00:09.389Z,8.10
2018-09-01T05:01:14.003Z,8.10
2018-09-01T05:02:17.424Z,8.10
2018-09-01T05:03:20.924Z,8.20
2018-09-01T05:04:24.460Z,8.20
2018-09-01T05:05:27.986Z,8.30
2018-09-01T05:06:31.520Z,8.40
2018-09-01T05:07:35.083Z,8.40
2018-09-01T05:08:38.574Z,8.40
2018-09-01T05:09:42.063Z,8.60
2018-09-01T05:10:45.635Z,8.80
2018-09-01T05:11:49.145Z,9.10
2018-09-01T05:12:52.641Z,9.30
2018-09-01T05:13:56.186Z,9.60
2018-09-01T05:14:59.707Z,9.80
2018-09-01T05:16:03.230Z,10.00
2018-09-01T05:17:07.002Z,10.20
2018-09-01T05:18:10.618Z,10.50
2018-09-01T05:19:14.202Z,10.80
2018-09-01T05:20:17.770Z,11.00
2018-09-01T05:21:21.287Z,11.30
2018-09-01T05:22:24.847Z,11.60
2018-09-01T05:23:28.445Z,11.80
2018-09-01T05:24:31.950Z,12.10
2018-09-01T05:25:35.526Z,12.40
2018-09-01T05:26:39.031Z,12.80
2018-09-01T05:27:42.763Z,13.10
2018-09-01T05:28:46.513Z,13.50
2018-09-01T05:29:50.193Z,13.70
2018-09-01T05:30:53.766Z,14.00
2018-09-01T05:31:57.342Z,14.30
2018-09-01T05:33:01.060Z,14.60
2018-09-01T05:34:04.713Z,15.00
2018-09-01T05:35:08.325Z,15.20
2018-09-01T05:36:12.372Z,15.50
2018-09-01T05:37:15.973Z,15.90
2018-09-01T05:38:19.567Z,16.10
2018-09-01T05:39:23.150Z,16.40
2018-09-01T05:40:26.882Z,16.70
2018-09-01T05:41:30.722Z,16.90
2018-09-01T05:42:34.243Z,17.20
2018-09-01T05:43:37.849Z,17.40
2018-09-01T05:44:41.396Z,17.70
2018-09-01T05:45:45.007Z,17.80
2018-09-01T05:46:48.579Z,18.00
2018-09-01T05:47:52.123Z,18.30
2018-09-01T05:48:55.613Z,18.40
2018-09-01T05:49:59.162Z,18.50
2018-09-01T05:51:02.831Z,18.60
2018-09-01T05:52:06.399Z,18.90
2018-09-01T05:53:09.951Z,19.10
2018-09-01T05:54:13.863Z,19.40
2018-09-01T05:55:17.462Z,19.50
2018-09-01T05:56:21.015Z,19.80
2018-09-01T05:57:25.462Z,20.00
2018-09-01T05:58:32.162Z,20.20
2018-09-01T05:59:36.106Z,20.30
2018-09-01T06:00:46.285Z,20.30
2018-09-01T06:01:50.136Z,20.60
2018-09-01T06:02:54.212Z,21.00
2018-09-01T06:03:57.810Z,21.20
2018-09-01T06:05:01.396Z,21.40
2018-09-01T06:06:05.237Z,21.70
2018-09-01T06:07:09.832Z,21.90
2018-09-01T06:08:15.225Z,22.00
2018-09-01T06:09:19.030Z,22.20
2018-09-01T06:10:22.873Z,22.30
2018-09-01T06:11:27.090Z,22.50
2018-09-01T06:12:31.011Z,22.70
2018-09-01T06:13:34.763Z,22.90
2018-09-01T06:14:38.741Z,22.90
2018-09-01T06:15:42.790Z,23.10
2018-09-01T06:16:46.386Z,23.30
2018-09-01T06:17:50.046Z,23.60
2018-09-01T06:18:53.591Z,23.60
2018-09-01T06:19:57.281Z,23.60
2018-09-01T06:21:01.249Z,23.70
2018-09-01T06:22:05.091Z,23.80
2018-09-01T06:23:08.652Z,23.90
2018-09-01T06:24:12.871Z,24.20
2018-09-01T06:25:17.002Z,24.40
2018-09-01T06:26:20.975Z,24.50
2018-09-01T06:27:28.288Z,24.60
2018-09-01T06:28:36.098Z,24.80
2018-09-01T06:29:40.224Z,24.70
2018-09-01T06:30:46.658Z,25.00
2018-09-01T06:31:55.079Z,25.30
2018-09-01T06:32:59.143Z,25.40
2018-09-01T06:34:03.199Z,25.50
2018-09-01T06:35:07.431Z,25.50
2018-09-01T06:36:11.215Z,25.60
2018-09-01T06:37:15.027Z,25.50
2018-09-01T06:38:18.718Z,25.60
2018-09-01T06:39:22.559Z,25.80
2018-09-01T06:40:26.205Z,26.00
2018-09-01T06:41:30.269Z,26.00
2018-09-01T06:42:33.930Z,25.80
2018-09-01T06:43:37.653Z,25.80
2018-09-01T06:44:41.742Z,25.80
2018-09-01T06:45:45.759Z,25.90
2018-09-01T06:46:50.625Z,25.90
2018-09-01T06:47:56.110Z,26.00
2018-09-01T06:49:00.913Z,25.80
2018-09-01T06:50:05.517Z,25.80
2018-09-01T07:02:46.003Z,26.00
2018-09-01T07:03:49.779Z,26.30
2018-09-01T07:04:53.534Z,26.40
2018-09-01T07:05:57.331Z,26.20
2018-09-01T07:07:01.108Z,26.30
2018-09-01T07:08:05.988Z,26.50
2018-09-01T07:09:09.920Z,26.70
2018-09-01T07:10:13.899Z,26.80
2018-09-01T07:11:18.683Z,27.00
2018-09-01T07:14:02.613Z,27.00
2018-09-01T07:15:06.390Z,27.10
2018-09-01T07:16:10.295Z,27.10
2018-09-01T07:20:10.909Z,26.90
2018-09-01T07:21:14.941Z,27.00
2018-09-01T07:22:21.337Z,27.40
2018-09-01T07:23:29.516Z,27.50
2018-09-01T07:24:40.748Z,27.50
2018-09-01T07:25:44.718Z,27.50
2018-09-01T07:26:54.572Z,27.10
2018-09-01T07:27:59.044Z,26.80
2018-09-01T07:29:03.047Z,26.60
2018-09-01T07:30:15.049Z,26.70
2018-09-01T07:31:24.016Z,26.90
2018-09-01T07:32:33.644Z,27.10
2018-09-01T07:33:37.453Z,27.40
2018-09-01T07:34:41.158Z,27.70
2018-09-01T07:35:44.812Z,27.70
2018-09-01T07:36:48.462Z,27.70
2018-09-01T07:37:52.152Z,27.50
2018-09-01T07:38:55.859Z,27.40
2018-09-01T07:39:59.510Z,27.10
2018-09-01T07:41:03.150Z,27.40
2018-09-01T07:42:07.144Z,27.50
2018-09-01T07:43:11.169Z,27.40
2018-09-01T07:44:14.974Z,26.80
2018-09-01T07:45:20.070Z,26.60
2018-09-01T07:46:23.745Z,26.60
2018-09-01T07:47:27.567Z,26.70
2018-09-01T07:48:31.567Z,26.60
2018-09-01T07:49:35.210Z,26.70
2018-09-01T07:50:38.866Z,26.60
2018-09-01T07:51:42.543Z,26.30
2018-09-01T07:52:46.183Z,26.40
2018-09-01T07:53:49.924Z,26.20
2018-09-01T07:54:53.583Z,26.10
2018-09-01T07:55:57.728Z,26.00
2018-09-01T07:57:01.938Z,25.70
2018-09-01T07:58:05.688Z,25.80
2018-09-01T08:08:56.813Z,25.90
2018-09-01T08:10:00.933Z,26.00
2018-09-01T08:11:05.720Z,26.10
2018-09-01T08:12:09.519Z,26.30
2018-09-01T08:13:13.295Z,26.20
2018-09-01T08:14:17.020Z,26.10
2018-09-01T08:15:20.761Z,25.80
2018-09-01T08:16:24.480Z,25.80
2018-09-01T08:17:28.562Z,25.40
2018-09-01T08:18:32.670Z,25.30
2018-09-01T08:19:36.310Z,25.20
2018-09-01T08:20:40.124Z,25.10
2018-09-01T08:21:43.993Z,25.10
2018-09-01T08:22:47.781Z,24.90
2018-09-01T08:23:51.504Z,24.60
2018-09-01T08:24:55.300Z,24.50
2018-09-01T08:25:59.105Z,24.00
2018-09-01T08:27:02.782Z,23.60
2018-09-01T08:28:06.554Z,23.50
2018-09-01T08:29:10.337Z,23.70
2018-09-01T08:30:14.245Z,23.80
2018-09-01T08:31:17.905Z,23.80
2018-09-01T08:32:21.677Z,23.70
2018-09-01T08:33:25.367Z,23.50
2018-09-01T08:34:30.273Z,23.20
2018-09-01T08:35:34.388Z,22.90
2018-09-01T08:36:38.070Z,22.80
2018-09-01T08:37:41.809Z,22.50
2018-09-01T08:38:45.438Z,22.30
2018-09-01T08:39:49.142Z,21.80
2018-09-01T08:40:53.372Z,21.70
2018-09-01T08:41:57.127Z,21.80
2018-09-01T08:43:00.803Z,22.10
2018-09-01T08:44:04.790Z,22.50
2018-09-01T08:45:08.554Z,22.60
2018-09-01T08:46:12.516Z,22.80
2018-09-01T08:47:16.356Z,23.00
2018-09-01T08:48:20.012Z,22.90
2018-09-01T08:49:23.738Z,22.70
2018-09-01T08:50:27.412Z,22.40
2018-09-01T08:51:31.185Z,22.10
2018-09-01T08:52:34.995Z,22.10
2018-09-01T08:53:38.863Z,22.20
2018-09-01T08:54:42.539Z,22.10
2018-09-01T08:55:46.196Z,22.20
2018-09-01T08:56:57.319Z,22.10
2018-09-01T08:58:01.282Z,21.90
2018-09-01T08:59:05.236Z,21.80
2018-09-01T09:00:08.922Z,21.80
2018-09-01T09:01:13.071Z,21.90
2018-09-01T09:02:16.813Z,22.00
2018-09-01T09:03:20.515Z,22.10
2018-09-01T09:04:24.737Z,22.50
2018-09-01T09:05:28.425Z,22.80
2018-09-01T09:06:32.315Z,23.30
2018-09-01T09:07:36.077Z,23.50
2018-09-01T09:08:39.991Z,23.80
2018-09-01T09:09:43.670Z,24.00
2018-09-01T09:10:47.482Z,23.80
2018-09-01T09:11:51.337Z,23.60
2018-09-01T09:12:55.504Z,23.40
2018-09-01T09:13:59.261Z,23.10
2018-09-01T09:15:02.886Z,23.00
2018-09-01T09:16:06.997Z,22.90
2018-09-01T09:17:11.036Z,22.90
2018-09-01T09:18:14.875Z,22.60
2018-09-01T09:19:19.667Z,22.60
2018-09-01T09:20:23.581Z,22.50
2018-09-01T09:21:27.302Z,22.40
2018-09-01T09:22:31.084Z,22.60
2018-09-01T09:23:34.823Z,22.60
2018-09-01T09:24:39.424Z,22.60
2018-09-01T09:25:43.304Z,22.80
2018-09-01T09:26:47.327Z,23.20
2018-09-01T09:27:51.713Z,23.60
2018-09-01T09:28:55.344Z,24.00
2018-09-01T09:29:59.434Z,24.30
2018-09-01T09:31:03.192Z,24.30
2018-09-01T09:32:07.180Z,24.50
2018-09-01T09:33:11.015Z,24.50
2018-09-01T09:34:14.965Z,24.40
2018-09-01T09:35:18.761Z,24.10
2018-09-01T09:36:22.669Z,23.40
2018-09-01T09:37:26.387Z,22.90
2018-09-01T09:38:30.413Z,22.90
2018-09-01T09:39:34.074Z,22.90
2018-09-01T09:40:37.943Z,22.90
2018-09-01T09:41:41.828Z,22.90
2018-09-01T09:42:46.140Z,23.00
2018-09-01T09:43:50.222Z,22.90
2018-09-01T09:44:54.942Z,22.90
2018-09-01T09:45:59.156Z,22.90
2018-09-01T09:47:02.965Z,22.60
2018-09-01T09:48:07.630Z,22.40
2018-09-01T09:49:11.576Z,22.30
2018-09-01T09:50:15.271Z,22.30
2018-09-01T09:51:19.062Z,22.40
2018-09-01T09:52:22.802Z,22.20
2018-09-01T09:53:26.513Z,21.90
2018-09-01T09:54:30.676Z,21.50
2018-09-01T09:55:34.356Z,21.20
2018-09-01T09:56:38.082Z,21.10
2018-09-01T09:57:41.966Z,21.30
2018-09-01T09:58:46.152Z,21.50
2018-09-01T09:59:50.015Z,21.90
2018-09-01T10:00:57.044Z,21.90
2018-09-01T10:02:02.802Z,22.00
2018-09-01T10:03:07.127Z,22.00
2018-09-01T10:04:11.740Z,22.10
2018-09-01T10:05:15.560Z,22.20
2018-09-01T10:06:19.337Z,22.20
2018-09-01T10:07:23.268Z,22.10
2018-09-01T10:08:27.106Z,21.90
2018-09-01T10:09:30.984Z,21.60
2018-09-01T10:10:35.286Z,21.40
2018-09-01T10:11:40.206Z,21.30
2018-09-01T10:12:44.388Z,21.20
2018-09-01T10:13:48.355Z,21.30
2018-09-01T10:14:52.609Z,21.40
2018-09-01T10:15:56.548Z,21.30
2018-09-01T10:17:00.782Z,21.40
2018-09-01T10:18:04.797Z,21.50
2018-09-01T10:19:10.980Z,21.70
2018-09-01T10:20:15.234Z,21.80
2018-09-01T10:21:19.654Z,21.90
2018-09-01T10:22:23.610Z,22.10
2018-09-01T10:23:27.756Z,22.00
2018-09-01T10:24:31.628Z,21.80
2018-09-01T10:25:35.257Z,21.60
2018-09-01T10:26:39.078Z,21.20
2018-09-01T10:27:42.744Z,20.80
2018-09-01T10:28:46.665Z,20.70
2018-09-01T10:29:50.395Z,20.70
2018-09-01T10:30:54.134Z,20.60
2018-09-01T10:31:58.674Z,20.50
2018-09-01T10:33:03.135Z,20.40
2018-09-01T10:34:06.945Z,20.30
2018-09-01T10:35:11.460Z,20.30
2018-09-01T10:36:15.657Z,20.20
2018-09-01T10:37:19.923Z,20.30
2018-09-01T10:38:24.733Z,20.30
2018-09-01T10:39:28.466Z,20.30
2018-09-01T10:40:32.610Z,20.40
2018-09-01T10:41:36.538Z,20.40
2018-09-01T10:42:40.391Z,20.40
2018-09-01T10:43:44.184Z,20.50
2018-09-01T10:44:48.734Z,20.60
2018-09-01T10:45:52.675Z,20.60
2018-09-01T10:46:56.319Z,20.70
2018-09-01T10:48:00.128Z,20.70
2018-09-01T10:49:04.016Z,20.80
2018-09-01T10:50:07.810Z,20.90
2018-09-01T10:51:12.270Z,21.00
2018-09-01T10:52:16.416Z,20.80
2018-09-01T10:53:20.324Z,20.70
2018-09-01T10:54:24.558Z,20.80
2018-09-01T10:55:28.916Z,20.90
2018-09-01T10:56:32.835Z,21.00
2018-09-01T10:57:36.622Z,21.10
2018-09-01T10:58:40.338Z,21.00
2018-09-01T10:59:44.305Z,21.00
2018-09-01T11:00:48.382Z,20.80
2018-09-01T11:01:52.094Z,20.60
2018-09-01T11:02:55.790Z,20.60
2018-09-01T11:03:59.505Z,20.50
2018-09-01T11:05:03.565Z,20.50
2018-09-01T11:06:07.182Z,20.30
2018-09-01T11:07:11.112Z,20.30
2018-09-01T11:08:14.799Z,20.20
2018-09-01T11:09:18.548Z,20.10
2018-09-01T11:10:22.247Z,20.10
2018-09-01T11:11:26.060Z,20.00
2018-09-01T11:12:29.825Z,20.00
2018-09-01T11:13:33.691Z,19.80
2018-09-01T11:14:37.601Z,19.70
2018-09-01T11:15:41.441Z,19.70
2018-09-01T11:16:45.238Z,19.60
2018-09-01T11:17:48.929Z,19.60
2018-09-01T11:18:52.690Z,19.70
2018-09-01T11:19:56.738Z,19.70
2018-09-01T11:21:00.578Z,19.70
2018-09-01T11:22:04.257Z,19.80
2018-09-01T11:23:08.027Z,19.90
2018-09-01T11:24:12.341Z,19.90
2018-09-01T11:25:16.808Z,20.10
2018-09-01T11:26:20.626Z,20.20
2018-09-01T11:27:25.107Z,20.40
2018-09-01T11:28:28.824Z,20.70
2018-09-01T11:29:32.757Z,21.00
2018-09-01T11:30:37.115Z,21.20
2018-09-01T11:31:40.724Z,21.30
2018-09-01T11:32:44.618Z,21.50
2018-09-01T11:33:48.616Z,21.70
2018-09-01T11:34:52.426Z,21.70
2018-09-01T11:35:56.251Z,21.90
2018-09-01T11:37:00.098Z,22.00
2018-09-01T11:38:04.378Z,22.00
2018-09-01T11:39:10.159Z,22.10
2018-09-01T11:40:14.081Z,21.90
2018-09-01T11:41:17.828Z,21.70
2018-09-01T11:42:21.806Z,21.50
2018-09-01T11:43:25.398Z,21.60
2018-09-01T11:44:29.125Z,21.60
2018-09-01T11:45:32.802Z,21.70
2018-09-01T11:46:37.477Z,21.80
2018-09-01T11:47:41.374Z,22.00
2018-09-01T11:48:44.972Z,22.10
2018-09-01T11:49:48.648Z,22.20
2018-09-01T11:50:52.277Z,22.10
2018-09-01T11:51:56.228Z,22.00
2018-09-01T11:52:59.948Z,22.00
2018-09-01T11:54:03.526Z,22.00
2018-09-01T11:55:07.928Z,21.90
2018-09-01T11:56:11.938Z,21.80
2018-09-01T11:57:15.747Z,21.70
2018-09-01T11:58:19.834Z,21.70
2018-09-01T11:59:23.570Z,21.60
2018-09-01T12:00:27.350Z,21.40
2018-09-01T12:01:31.269Z,21.30
2018-09-01T12:02:35.712Z,21.30
2018-09-01T12:03:39.698Z,21.30
2018-09-01T12:04:43.704Z,21.40
2018-09-01T12:05:47.572Z,21.60
2018-09-01T12:06:52.343Z,21.70
2018-09-01T12:07:56.416Z,21.90
2018-09-01T12:09:00.809Z,22.10
2018-09-01T12:10:06.670Z,22.20
2018-09-01T12:11:10.626Z,22.30
2018-09-01T12:12:14.397Z,22.40
2018-09-01T12:13:19.591Z,22.40
2018-09-01T12:14:23.598Z,22.50
2018-09-01T12:15:27.376Z,22.40
2018-09-01T12:16:31.179Z,22.10
2018-09-01T12:17:35.206Z,21.80
2018-09-01T12:18:38.933Z,21.70
2018-09-01T12:19:42.648Z,21.60
2018-09-01T12:20:46.382Z,21.60
2018-09-01T12:21:50.293Z,21.30
2018-09-01T12:22:54.138Z,21.20
2018-09-01T12:23:57.955Z,21.00
2018-09-01T12:25:02.281Z,20.80
2018-09-01T12:26:06.123Z,20.70
2018-09-01T12:27:10.217Z,20.60
2018-09-01T12:28:14.276Z,20.40
2018-09-01T12:29:17.925Z,20.30
2018-09-01T12:30:21.827Z,20.30
2018-09-01T12:31:26.112Z,20.20
2018-09-01T12:32:29.865Z,20.40
2018-09-01T12:33:33.887Z,20.10
2018-09-01T12:34:38.027Z,20.10
2018-09-01T12:35:42.119Z,20.30
2018-09-01T12:36:45.973Z,20.30
2018-09-01T12:37:50.081Z,20.20
2018-09-01T12:38:54.366Z,20.20
2018-09-01T12:39:58.085Z,20.20
2018-09-01T12:41:01.979Z,20.30
2018-09-01T12:42:05.772Z,20.30
2018-09-01T12:43:09.717Z,20.50
2018-09-01T12:44:14.491Z,20.50
2018-09-01T12:45:18.456Z,20.50
2018-09-01T12:46:22.301Z,20.50
2018-09-01T12:47:25.959Z,20.60
2018-09-01T12:48:29.704Z,20.60
2018-09-01T12:49:33.557Z,20.70
2018-09-01T12:50:37.884Z,20.50
2018-09-01T12:51:41.616Z,20.50
2018-09-01T12:52:45.373Z,20.50
2018-09-01T12:53:49.399Z,20.60
2018-09-01T12:54:53.270Z,20.70
2018-09-01T12:55:57.328Z,20.80
2018-09-01T12:57:01.037Z,20.70
2018-09-01T12:58:04.704Z,20.50
2018-09-01T12:59:08.889Z,20.40
2018-09-01T13:00:13.129Z,20.30
2018-09-01T13:01:16.985Z,20.20
2018-09-01T13:02:22.253Z,20.20
2018-09-01T13:03:25.925Z,20.30
2018-09-01T13:04:29.647Z,20.30
2018-09-01T13:05:33.837Z,20.30
2018-09-01T13:06:38.374Z,20.50
2018-09-01T13:07:42.385Z,20.50
2018-09-01T13:08:46.488Z,20.70
2018-09-01T13:09:50.222Z,20.70
2018-09-01T13:10:54.399Z,20.90
2018-09-01T13:11:58.256Z,21.00
2018-09-01T13:13:01.991Z,21.10
2018-09-01T13:14:05.671Z,21.30
2018-09-01T13:15:09.673Z,21.40
2018-09-01T13:16:14.106Z,21.40
2018-09-01T13:17:17.865Z,21.30
2018-09-01T13:18:22.535Z,21.20
2018-09-01T13:19:27.382Z,21.10
2018-09-01T13:20:31.284Z,21.00
2018-09-01T13:21:35.059Z,20.90
2018-09-01T13:22:39.521Z,20.90
2018-09-01T13:23:44.314Z,20.80
2018-09-01T13:24:48.183Z,20.80
2018-09-01T13:25:52.052Z,20.80
2018-09-01T13:26:56.134Z,20.70
2018-09-01T13:28:00.178Z,20.70
2018-09-01T13:29:03.926Z,20.50
2018-09-01T13:30:07.827Z,20.40
2018-09-01T13:31:12.021Z,20.40
2018-09-01T13:32:15.817Z,20.30
2018-09-01T13:33:19.661Z,20.30
2018-09-01T13:34:23.747Z,20.30
2018-09-01T13:35:27.372Z,20.20
2018-09-01T13:36:31.165Z,20.10
2018-09-01T13:37:35.104Z,20.00
2018-09-01T13:38:39.379Z,20.00
2018-09-01T13:39:43.056Z,20.00
2018-09-01T13:40:46.968Z,20.10
2018-09-01T13:41:50.643Z,20.20
2018-09-01T13:42:54.447Z,20.30
2018-09-01T13:43:58.545Z,20.30
2018-09-01T13:45:03.633Z,20.40
2018-09-01T13:46:07.557Z,20.50
2018-09-01T13:47:11.912Z,20.50
2018-09-01T13:48:15.666Z,20.40
2018-09-01T13:49:19.465Z,20.40
2018-09-01T13:50:23.188Z,20.30
2018-09-01T13:51:27.387Z,20.40
2018-09-01T13:52:31.271Z,20.50
2018-09-01T13:53:34.988Z,20.50
2018-09-01T13:54:38.921Z,20.60
2018-09-01T13:55:42.770Z,20.70
2018-09-01T13:56:46.617Z,20.80
2018-09-01T13:57:50.406Z,20.90
2018-09-01T13:58:54.311Z,20.90
2018-09-01T13:59:58.052Z,20.80
2018-09-01T14:01:02.677Z,20.80
2018-09-01T14:02:06.532Z,20.80
2018-09-01T14:03:10.279Z,20.90
2018-09-01T14:04:14.449Z,20.80
2018-09-01T14:05:18.129Z,20.80
2018-09-01T14:06:22.110Z,20.80
2018-09-01T14:07:25.928Z,20.80
2018-09-01T14:08:29.750Z,20.80
2018-09-01T14:09:33.573Z,20.70
2018-09-01T14:10:37.696Z,20.90
2018-09-01T14:11:41.459Z,20.90
2018-09-01T14:12:45.427Z,21.00
2018-09-01T14:13:49.373Z,20.90
2018-09-01T14:14:53.567Z,21.00
2018-09-01T14:15:57.046Z,21.10
2018-09-01T14:17:01.015Z,21.10
2018-09-01T14:18:04.921Z,21.20
2018-09-01T14:19:09.267Z,21.40
2018-09-01T14:20:13.899Z,21.50
2018-09-01T14:21:17.835Z,21.60
2018-09-01T14:22:21.545Z,21.70
2018-09-01T14:23:25.302Z,21.60
2018-09-01T14:24:28.965Z,21.50
2018-09-01T14:25:32.786Z,21.40